Sainte-Claire, Canada
Current Conditions -  °F | °C
As of 3:25 AM on Friday 21 Nov 2014 (Local Time) from CYQB Reporting Station
Scattered Clouds Scattered Clouds  
Wind Chill:   Ceiling: Unl
Heat Index: 21°   Visibility: 15mi
Dew Point: 16°   Wind: 17mph
Humidity: 80%   Direction: 250°WSW
Pressure: 29.73"   Gusts: NA
Location:  46.6°N, 70.85°W
Report Text: CYQB 210825Z 25015KT 15SM FEW020 SCT060 M06/M09 A2973 RMK SC1SC3 SLP071
Loading
Personal Weather Stations






























Interactive Weather Map New forecast layout! Learn more

10-Day Weather Forecast

Advertisements
Track Severe Weather on mobile